map of NTR home
NTR - Airport
Location
City:  Monterrey, Nuevo León, México
Name:Aeropuerto del Norte International Airport
ICAO:MMAN
IATA:NTR

Details
Type:Airport (Aerodrome, Airfield)
Use:Public/Civil, International (customs port of entry)
Latitude:25°51'56"N (25.865572)
Longitude:100°14'14"W (-100.237238)
Datum:WGS 1984
Elevation:1476 ft (450 m)
Variation:5.00°E (WMM2015 magnetic declination)
-0.11° annual change
Runways:2
Longest:6598 × 148 ft (2011 × 45 m), paved

Time
Time Zone:UTC-6 (DST-5)
Local Time:

Weather
METAR:MMAN 160540Z 08003KT 10SM SKC 07/M02 A3025 RMK SLP/// 5//// 9//
TAF:MMAN 160520Z 1606/1706 12005KT P6SM SKC
FM161800 13010KT P6SM SKC
FM170300 13005KT P6SM SKC

Related Locations
Nearby:
Farthest:RRG: 11319 mi / 18216 km
Plaine Corail [Sir Gaëtan Duval Airport (Plaine Corail Airport)], Rodrigues Island, MU

Find:

   beyond  
but within

Other Information
Maps:
NOTAMs:
Links:
Sources:

  
  • flag of México
  • flag of Nuevo León
  

Sectional Chart

Flight Planning
at skyvector.com

Satellite Image

Google Maps Satellite view

 

Copyright © 2004-2018 Karl L. Swartz. All rights reserved.
The Great Circle Mapper name and logo are trademarks of the Great Circle Mapper.
All other trademarks mentioned herein belong to their respective owners.
Please see credits for attibutions and further copyright information.

  Follow gcmap on Facebook Follow gcmap on Twitter Follow gcmap on Google+ GCmap on LinkedIn

hCard Microformat

Geo Microformat